sensor_id;sensor_type;location;lat;lon;timestamp;pressure;altitude;pressure_sealevel;temperature;humidity
47636;BME280;33364;50.766;15.338;2023-04-30T00:01:09;95087.56;;;7.87;80.79
47636;BME280;33364;50.766;15.338;2023-04-30T00:03:34;95088.00;;;7.84;80.25
47636;BME280;33364;50.766;15.338;2023-04-30T00:06:00;95078.59;;;7.88;80.16
47636;BME280;33364;50.766;15.338;2023-04-30T00:08:26;95085.88;;;7.93;80.09
47636;BME280;33364;50.766;15.338;2023-04-30T00:10:51;95093.59;;;7.95;80.13
47636;BME280;33364;50.766;15.338;2023-04-30T00:13:18;95094.72;;;7.99;79.48
47636;BME280;33364;50.766;15.338;2023-04-30T00:15:43;95088.72;;;7.92;79.85
47636;BME280;33364;50.766;15.338;2023-04-30T00:18:09;95096.22;;;7.95;80.54
47636;BME280;33364;50.766;15.338;2023-04-30T00:20:35;95088.56;;;8.05;80.71
47636;BME280;33364;50.766;15.338;2023-04-30T00:23:02;95092.66;;;8.01;79.89
47636;BME280;33364;50.766;15.338;2023-04-30T00:25:27;95083.44;;;7.92;79.08
47636;BME280;33364;50.766;15.338;2023-04-30T00:27:53;95090.06;;;7.82;79.33
47636;BME280;33364;50.766;15.338;2023-04-30T00:30:19;95095.34;;;7.82;79.74
47636;BME280;33364;50.766;15.338;2023-04-30T00:32:45;95097.28;;;7.75;80.25
47636;BME280;33364;50.766;15.338;2023-04-30T00:35:11;95100.94;;;7.74;80.77
47636;BME280;33364;50.766;15.338;2023-04-30T00:37:37;95103.06;;;7.84;80.78
47636;BME280;33364;50.766;15.338;2023-04-30T00:40:03;95102.31;;;7.95;80.74
47636;BME280;33364;50.766;15.338;2023-04-30T00:42:29;95108.00;;;8.11;80.23
47636;BME280;33364;50.766;15.338;2023-04-30T00:44:54;95104.44;;;8.05;79.07
47636;BME280;33364;50.766;15.338;2023-04-30T00:47:21;95103.13;;;7.96;79.30
47636;BME280;33364;50.766;15.338;2023-04-30T00:49:47;95102.75;;;7.92;79.38
47636;BME280;33364;50.766;15.338;2023-04-30T00:52:13;95103.47;;;7.99;79.07
47636;BME280;33364;50.766;15.338;2023-04-30T00:54:39;95102.81;;;8.04;79.37
47636;BME280;33364;50.766;15.338;2023-04-30T00:57:06;95106.19;;;7.93;79.03
47636;BME280;33364;50.766;15.338;2023-04-30T00:59:34;95104.16;;;7.95;79.33
47636;BME280;33364;50.766;15.338;2023-04-30T01:02:01;95108.84;;;7.93;78.36
47636;BME280;33364;50.766;15.338;2023-04-30T01:04:27;95102.56;;;7.75;79.64
47636;BME280;33364;50.766;15.338;2023-04-30T01:06:53;95109.91;;;7.73;79.60
47636;BME280;33364;50.766;15.338;2023-04-30T01:09:19;95105.00;;;7.77;79.64
47636;BME280;33364;50.766;15.338;2023-04-30T01:17:31;95114.34;;;7.61;80.47
47636;BME280;33364;50.766;15.338;2023-04-30T01:19:59;95120.44;;;7.61;79.18
47636;BME280;33364;50.766;15.338;2023-04-30T01:28:03;95109.78;;;7.49;79.86
47636;BME280;33364;50.766;15.338;2023-04-30T01:30:33;95117.19;;;7.59;80.30
47636;BME280;33364;50.766;15.338;2023-04-30T01:33:00;95119.91;;;7.71;79.91
47636;BME280;33364;50.766;15.338;2023-04-30T01:35:41;95126.09;;;7.83;79.23
47636;BME280;33364;50.766;15.338;2023-04-30T01:38:27;95125.72;;;7.80;78.28
47636;BME280;33364;50.766;15.338;2023-04-30T01:41:39;95122.06;;;7.62;79.34
47636;BME280;33364;50.766;15.338;2023-04-30T01:46:48;95127.13;;;7.64;80.14
47636;BME280;33364;50.766;15.338;2023-04-30T01:49:41;95127.06;;;7.52;79.60
47636;BME280;33364;50.766;15.338;2023-04-30T01:52:21;95131.66;;;7.57;79.94
47636;BME280;33364;50.766;15.338;2023-04-30T01:55:00;95131.84;;;7.62;79.97
47636;BME280;33364;50.766;15.338;2023-04-30T01:57:31;95127.97;;;7.76;80.52
47636;BME280;33364;50.766;15.338;2023-04-30T01:59:58;95125.47;;;7.81;79.24
47636;BME280;33364;50.766;15.338;2023-04-30T02:02:24;95129.75;;;7.82;79.00
47636;BME280;33364;50.766;15.338;2023-04-30T02:04:50;95127.47;;;7.86;79.49
47636;BME280;33364;50.766;15.338;2023-04-30T02:07:30;95135.84;;;7.64;78.73
47636;BME280;33364;50.766;15.338;2023-04-30T02:09:59;95140.34;;;7.64;79.73
47636;BME280;33364;50.766;15.338;2023-04-30T02:12:25;95140.34;;;7.64;79.08
47636;BME280;33364;50.766;15.338;2023-04-30T02:14:52;95142.84;;;7.59;82.13
47636;BME280;33364;50.766;15.338;2023-04-30T02:17:17;95150.16;;;7.57;79.54
47636;BME280;33364;50.766;15.338;2023-04-30T02:19:43;95139.81;;;7.55;80.03
47636;BME280;33364;50.766;15.338;2023-04-30T02:22:09;95146.06;;;7.61;79.36
47636;BME280;33364;50.766;15.338;2023-04-30T02:24:35;95152.91;;;7.68;78.84
47636;BME280;33364;50.766;15.338;2023-04-30T02:27:00;95151.22;;;7.74;79.31
47636;BME280;33364;50.766;15.338;2023-04-30T02:29:27;95154.88;;;7.73;78.64
47636;BME280;33364;50.766;15.338;2023-04-30T02:31:52;95156.50;;;7.74;78.77
47636;BME280;33364;50.766;15.338;2023-04-30T02:34:18;95157.72;;;7.71;79.24
47636;BME280;33364;50.766;15.338;2023-04-30T02:36:44;95154.22;;;7.59;78.30
47636;BME280;33364;50.766;15.338;2023-04-30T02:39:10;95151.06;;;7.50;79.58
47636;BME280;33364;50.766;15.338;2023-04-30T02:41:36;95155.03;;;7.60;80.17
47636;BME280;33364;50.766;15.338;2023-04-30T02:44:02;95164.28;;;7.69;79.42
47636;BME280;33364;50.766;15.338;2023-04-30T02:46:27;95159.88;;;7.63;79.12
47636;BME280;33364;50.766;15.338;2023-04-30T02:48:53;95167.22;;;7.61;79.72
47636;BME280;33364;50.766;15.338;2023-04-30T02:51:19;95181.75;;;7.51;80.06
47636;BME280;33364;50.766;15.338;2023-04-30T02:53:45;95183.22;;;7.47;80.54
47636;BME280;33364;50.766;15.338;2023-04-30T02:56:10;95180.59;;;7.47;79.46
47636;BME280;33364;50.766;15.338;2023-04-30T02:58:36;95184.09;;;7.41;80.82
47636;BME280;33364;50.766;15.338;2023-04-30T03:01:02;95189.31;;;7.29;81.32
47636;BME280;33364;50.766;15.338;2023-04-30T03:03:28;95193.31;;;7.32;80.45
47636;BME280;33364;50.766;15.338;2023-04-30T03:05:53;95198.03;;;7.30;80.68
47636;BME280;33364;50.766;15.338;2023-04-30T03:08:21;95206.13;;;7.35;80.25
47636;BME280;33364;50.766;15.338;2023-04-30T03:10:46;95207.44;;;7.26;80.75
47636;BME280;33364;50.766;15.338;2023-04-30T03:13:12;95210.16;;;7.38;80.96
47636;BME280;33364;50.766;15.338;2023-04-30T03:15:38;95203.63;;;7.40;80.01
47636;BME280;33364;50.766;15.338;2023-04-30T03:18:04;95206.59;;;7.50;80.75
47636;BME280;33364;50.766;15.338;2023-04-30T03:20:30;95205.56;;;7.51;80.82
47636;BME280;33364;50.766;15.338;2023-04-30T03:22:56;95199.91;;;7.48;81.02
47636;BME280;33364;50.766;15.338;2023-04-30T03:25:22;95204.22;;;7.42;80.75
47636;BME280;33364;50.766;15.338;2023-04-30T03:27:48;95206.06;;;7.42;80.53
47636;BME280;33364;50.766;15.338;2023-04-30T03:30:13;95205.69;;;7.38;80.15
47636;BME280;33364;50.766;15.338;2023-04-30T03:32:39;95209.13;;;7.39;80.23
47636;BME280;33364;50.766;15.338;2023-04-30T03:35:05;95210.47;;;7.48;79.92
47636;BME280;33364;50.766;15.338;2023-04-30T03:37:31;95217.59;;;7.47;79.42
47636;BME280;33364;50.766;15.338;2023-04-30T03:39:56;95223.69;;;7.48;79.52
47636;BME280;33364;50.766;15.338;2023-04-30T03:42:22;95230.88;;;7.41;78.45
47636;BME280;33364;50.766;15.338;2023-04-30T03:44:48;95229.56;;;7.50;80.83
47636;BME280;33364;50.766;15.338;2023-04-30T03:47:14;95231.25;;;7.44;79.13
47636;BME280;33364;50.766;15.338;2023-04-30T03:49:39;95232.91;;;7.39;80.45
47636;BME280;33364;50.766;15.338;2023-04-30T03:52:05;95230.38;;;7.50;80.18
47636;BME280;33364;50.766;15.338;2023-04-30T03:54:31;95231.78;;;7.53;78.40
47636;BME280;33364;50.766;15.338;2023-04-30T03:56:59;95233.84;;;7.51;77.69
47636;BME280;33364;50.766;15.338;2023-04-30T03:59:30;95235.50;;;7.45;77.98
47636;BME280;33364;50.766;15.338;2023-04-30T04:01:56;95244.75;;;7.36;76.38
47636;BME280;33364;50.766;15.338;2023-04-30T04:04:22;95249.19;;;7.42;77.12
47636;BME280;33364;50.766;15.338;2023-04-30T04:06:48;95254.53;;;7.29;77.71
47636;BME280;33364;50.766;15.338;2023-04-30T04:09:13;95255.50;;;7.16;76.84
47636;BME280;33364;50.766;15.338;2023-04-30T04:11:39;95262.44;;;7.10;78.95
47636;BME280;33364;50.766;15.338;2023-04-30T04:14:05;95266.06;;;7.09;77.33
47636;BME280;33364;50.766;15.338;2023-04-30T04:16:31;95264.03;;;6.79;78.36
47636;BME280;33364;50.766;15.338;2023-04-30T04:18:56;95265.94;;;6.72;79.48
47636;BME280;33364;50.766;15.338;2023-04-30T04:21:22;95271.22;;;6.72;77.19
47636;BME280;33364;50.766;15.338;2023-04-30T04:23:48;95262.25;;;6.73;74.67
47636;BME280;33364;50.766;15.338;2023-04-30T04:26:14;95268.66;;;6.59;74.47
47636;BME280;33364;50.766;15.338;2023-04-30T04:28:40;95267.59;;;6.60;76.67
47636;BME280;33364;50.766;15.338;2023-04-30T04:31:06;95267.81;;;6.58;76.78
47636;BME280;33364;50.766;15.338;2023-04-30T04:33:32;95274.34;;;6.56;72.85
47636;BME280;33364;50.766;15.338;2023-04-30T04:35:58;95279.69;;;6.36;74.30
47636;BME280;33364;50.766;15.338;2023-04-30T04:38:24;95272.88;;;6.21;74.25
47636;BME280;33364;50.766;15.338;2023-04-30T04:40:51;95284.81;;;6.24;75.61
47636;BME280;33364;50.766;15.338;2023-04-30T04:43:17;95286.84;;;6.29;75.46
47636;BME280;33364;50.766;15.338;2023-04-30T04:45:43;95291.69;;;6.32;74.55
47636;BME280;33364;50.766;15.338;2023-04-30T04:48:09;95294.53;;;6.37;76.52
47636;BME280;33364;50.766;15.338;2023-04-30T04:50:35;95289.22;;;6.43;75.49
47636;BME280;33364;50.766;15.338;2023-04-30T04:53:00;95295.31;;;6.37;76.60
47636;BME280;33364;50.766;15.338;2023-04-30T04:55:26;95294.88;;;6.47;79.18
47636;BME280;33364;50.766;15.338;2023-04-30T04:57:52;95298.09;;;6.56;76.36
47636;BME280;33364;50.766;15.338;2023-04-30T05:00:18;95288.00;;;6.46;77.27
47636;BME280;33364;50.766;15.338;2023-04-30T05:02:46;95288.63;;;6.41;75.12
47636;BME280;33364;50.766;15.338;2023-04-30T05:05:12;95290.50;;;6.34;75.80
47636;BME280;33364;50.766;15.338;2023-04-30T05:07:38;95288.03;;;6.39;75.98
47636;BME280;33364;50.766;15.338;2023-04-30T05:10:06;95293.28;;;6.46;76.84
47636;BME280;33364;50.766;15.338;2023-04-30T05:12:32;95303.00;;;6.46;76.43
47636;BME280;33364;50.766;15.338;2023-04-30T05:14:58;95305.84;;;6.51;78.97
47636;BME280;33364;50.766;15.338;2023-04-30T05:17:23;95301.34;;;6.58;77.21
47636;BME280;33364;50.766;15.338;2023-04-30T05:19:50;95312.72;;;6.52;77.71
47636;BME280;33364;50.766;15.338;2023-04-30T05:22:16;95311.94;;;6.51;77.51
47636;BME280;33364;50.766;15.338;2023-04-30T05:24:42;95312.00;;;6.31;76.84
47636;BME280;33364;50.766;15.338;2023-04-30T05:27:08;95333.31;;;6.36;77.00
47636;BME280;33364;50.766;15.338;2023-04-30T05:29:34;95316.31;;;6.19;75.71
47636;BME280;33364;50.766;15.338;2023-04-30T05:32:00;95325.81;;;6.33;78.63
47636;BME280;33364;50.766;15.338;2023-04-30T05:34:26;95330.59;;;6.56;76.62
47636;BME280;33364;50.766;15.338;2023-04-30T05:36:52;95325.47;;;6.61;76.79
47636;BME280;33364;50.766;15.338;2023-04-30T05:39:18;95320.19;;;6.61;75.25
47636;BME280;33364;50.766;15.338;2023-04-30T05:41:43;95323.59;;;6.75;76.36
47636;BME280;33364;50.766;15.338;2023-04-30T05:44:09;95320.00;;;6.63;74.87
47636;BME280;33364;50.766;15.338;2023-04-30T05:46:35;95323.13;;;6.92;75.90
47636;BME280;33364;50.766;15.338;2023-04-30T05:49:01;95323.50;;;6.95;73.16
47636;BME280;33364;50.766;15.338;2023-04-30T05:51:27;95322.19;;;7.11;74.10
47636;BME280;33364;50.766;15.338;2023-04-30T05:53:53;95323.00;;;7.37;73.92
47636;BME280;33364;50.766;15.338;2023-04-30T05:56:19;95319.88;;;7.47;70.91
47636;BME280;33364;50.766;15.338;2023-04-30T05:58:45;95332.03;;;7.29;69.20
47636;BME280;33364;50.766;15.338;2023-04-30T06:01:11;95336.81;;;7.07;70.72
47636;BME280;33364;50.766;15.338;2023-04-30T06:03:37;95331.13;;;6.78;70.32
47636;BME280;33364;50.766;15.338;2023-04-30T06:06:03;95338.81;;;6.80;73.61
47636;BME280;33364;50.766;15.338;2023-04-30T06:08:29;95338.44;;;6.70;70.15
47636;BME280;33364;50.766;15.338;2023-04-30T06:10:55;95335.81;;;6.70;69.96
47636;BME280;33364;50.766;15.338;2023-04-30T06:13:21;95346.97;;;6.78;69.83
47636;BME280;33364;50.766;15.338;2023-04-30T06:15:47;95348.34;;;6.81;68.66
47636;BME280;33364;50.766;15.338;2023-04-30T06:18:13;95352.63;;;6.82;68.83
47636;BME280;33364;50.766;15.338;2023-04-30T06:20:39;95338.00;;;7.18;68.75
47636;BME280;33364;50.766;15.338;2023-04-30T06:23:05;95345.19;;;7.36;67.53
47636;BME280;33364;50.766;15.338;2023-04-30T06:25:31;95338.69;;;7.32;67.30
47636;BME280;33364;50.766;15.338;2023-04-30T06:27:57;95339.59;;;7.51;68.40
47636;BME280;33364;50.766;15.338;2023-04-30T06:30:22;95337.00;;;7.69;65.21
47636;BME280;33364;50.766;15.338;2023-04-30T06:32:48;95333.63;;;7.62;65.36
47636;BME280;33364;50.766;15.338;2023-04-30T06:35:14;95339.09;;;7.86;66.04
47636;BME280;33364;50.766;15.338;2023-04-30T06:37:40;95336.44;;;8.30;65.31
47636;BME280;33364;50.766;15.338;2023-04-30T06:40:06;95338.88;;;8.31;64.17
47636;BME280;33364;50.766;15.338;2023-04-30T06:42:32;95336.06;;;8.26;65.03
47636;BME280;33364;50.766;15.338;2023-04-30T06:45:02;95339.22;;;8.35;64.66
47636;BME280;33364;50.766;15.338;2023-04-30T06:47:31;95342.97;;;8.27;61.63
47636;BME280;33364;50.766;15.338;2023-04-30T06:50:03;95345.09;;;8.00;63.69
47636;BME280;33364;50.766;15.338;2023-04-30T06:52:29;95339.03;;;7.93;65.54
47636;BME280;33364;50.766;15.338;2023-04-30T06:54:55;95341.53;;;7.87;64.86
47636;BME280;33364;50.766;15.338;2023-04-30T06:57:22;95342.13;;;7.89;64.23
47636;BME280;33364;50.766;15.338;2023-04-30T06:59:49;95336.38;;;8.18;64.65
47636;BME280;33364;50.766;15.338;2023-04-30T07:02:15;95341.28;;;8.33;63.76
47636;BME280;33364;50.766;15.338;2023-04-30T07:04:40;95339.03;;;8.73;62.08
47636;BME280;33364;50.766;15.338;2023-04-30T07:07:06;95340.84;;;8.91;63.05
47636;BME280;33364;50.766;15.338;2023-04-30T07:09:32;95330.88;;;8.75;61.75
47636;BME280;33364;50.766;15.338;2023-04-30T07:11:58;95349.47;;;8.87;64.07
47636;BME280;33364;50.766;15.338;2023-04-30T07:14:24;95352.59;;;8.95;63.86
47636;BME280;33364;50.766;15.338;2023-04-30T07:16:51;95347.34;;;8.77;63.04
47636;BME280;33364;50.766;15.338;2023-04-30T07:19:16;95350.66;;;8.54;63.84
47636;BME280;33364;50.766;15.338;2023-04-30T07:21:42;95351.91;;;8.51;63.79
47636;BME280;33364;50.766;15.338;2023-04-30T07:24:08;95353.50;;;8.34;63.83
47636;BME280;33364;50.766;15.338;2023-04-30T07:26:34;95360.25;;;8.30;65.17
47636;BME280;33364;50.766;15.338;2023-04-30T07:29:01;95363.63;;;8.18;64.64
47636;BME280;33364;50.766;15.338;2023-04-30T07:31:27;95363.91;;;8.10;63.92
47636;BME280;33364;50.766;15.338;2023-04-30T07:33:53;95360.25;;;7.86;63.57
47636;BME280;33364;50.766;15.338;2023-04-30T07:36:21;95361.81;;;7.94;64.61
47636;BME280;33364;50.766;15.338;2023-04-30T07:38:47;95369.50;;;8.02;65.77
47636;BME280;33364;50.766;15.338;2023-04-30T07:41:13;95371.41;;;8.13;65.22
47636;BME280;33364;50.766;15.338;2023-04-30T07:43:38;95364.19;;;8.02;64.25
47636;BME280;33364;50.766;15.338;2023-04-30T07:46:04;95368.56;;;8.15;65.18
47636;BME280;33364;50.766;15.338;2023-04-30T07:48:30;95368.13;;;8.18;62.76
47636;BME280;33364;50.766;15.338;2023-04-30T07:50:56;95373.59;;;7.98;62.77
47636;BME280;33364;50.766;15.338;2023-04-30T07:53:22;95382.19;;;7.93;65.04
47636;BME280;33364;50.766;15.338;2023-04-30T07:55:48;95380.72;;;8.22;64.77
47636;BME280;33364;50.766;15.338;2023-04-30T07:58:13;95385.72;;;8.05;61.53
47636;BME280;33364;50.766;15.338;2023-04-30T08:00:39;95383.53;;;8.02;63.98
47636;BME280;33364;50.766;15.338;2023-04-30T08:03:05;95388.22;;;8.00;63.04
47636;BME280;33364;50.766;15.338;2023-04-30T08:05:31;95386.94;;;7.84;63.41
47636;BME280;33364;50.766;15.338;2023-04-30T08:07:57;95389.16;;;7.87;65.36
47636;BME280;33364;50.766;15.338;2023-04-30T08:10:23;95393.94;;;7.97;64.51
47636;BME280;33364;50.766;15.338;2023-04-30T08:12:49;95393.03;;;8.10;64.77
47636;BME280;33364;50.766;15.338;2023-04-30T08:15:15;95395.03;;;8.15;63.85
47636;BME280;33364;50.766;15.338;2023-04-30T08:17:41;95392.03;;;8.30;63.89
47636;BME280;33364;50.766;15.338;2023-04-30T08:20:07;95400.50;;;8.38;64.56
47636;BME280;33364;50.766;15.338;2023-04-30T08:22:33;95403.13;;;8.38;62.76
47636;BME280;33364;50.766;15.338;2023-04-30T08:24:59;95414.34;;;8.40;61.33
47636;BME280;33364;50.766;15.338;2023-04-30T08:27:26;95402.03;;;8.27;59.21
47636;BME280;33364;50.766;15.338;2023-04-30T08:29:52;95390.69;;;8.64;58.68
47636;BME280;33364;50.766;15.338;2023-04-30T08:32:18;95394.13;;;9.02;60.03
47636;BME280;33364;50.766;15.338;2023-04-30T08:34:44;95389.91;;;9.12;59.02
47636;BME280;33364;50.766;15.338;2023-04-30T08:37:09;95403.56;;;8.97;58.84
47636;BME280;33364;50.766;15.338;2023-04-30T08:39:35;95387.66;;;8.79;58.00
47636;BME280;33364;50.766;15.338;2023-04-30T08:42:03;95399.28;;;8.96;58.70
47636;BME280;33364;50.766;15.338;2023-04-30T08:44:33;95395.38;;;9.29;57.17
47636;BME280;33364;50.766;15.338;2023-04-30T08:47:00;95391.28;;;9.33;57.09
47636;BME280;33364;50.766;15.338;2023-04-30T08:49:28;95395.69;;;10.05;59.38
47636;BME280;33364;50.766;15.338;2023-04-30T08:51:57;95394.53;;;10.60;56.57
47636;BME280;33364;50.766;15.338;2023-04-30T08:54:25;95398.59;;;10.63;53.34
47636;BME280;33364;50.766;15.338;2023-04-30T08:56:52;95399.06;;;11.12;52.51
47636;BME280;33364;50.766;15.338;2023-04-30T08:59:18;95404.38;;;11.12;52.73
47636;BME280;33364;50.766;15.338;2023-04-30T09:01:44;95400.25;;;10.93;50.50
47636;BME280;33364;50.766;15.338;2023-04-30T09:04:10;95394.50;;;10.84;52.98
47636;BME280;33364;50.766;15.338;2023-04-30T09:06:36;95404.09;;;10.97;53.70
47636;BME280;33364;50.766;15.338;2023-04-30T09:09:12;95401.44;;;11.26;52.26
47636;BME280;33364;50.766;15.338;2023-04-30T09:11:39;95408.94;;;11.29;50.98
47636;BME280;33364;50.766;15.338;2023-04-30T09:14:05;95406.28;;;10.88;52.89
47636;BME280;33364;50.766;15.338;2023-04-30T09:16:46;95402.97;;;10.57;53.05
47636;BME280;33364;50.766;15.338;2023-04-30T09:19:25;95409.53;;;10.19;52.70
47636;BME280;33364;50.766;15.338;2023-04-30T09:21:51;95404.84;;;10.57;53.38
47636;BME280;33364;50.766;15.338;2023-04-30T09:24:18;95407.84;;;11.13;51.70
47636;BME280;33364;50.766;15.338;2023-04-30T09:26:44;95418.13;;;11.09;49.31
47636;BME280;33364;50.766;15.338;2023-04-30T09:29:12;95409.97;;;11.28;50.60
47636;BME280;33364;50.766;15.338;2023-04-30T09:31:42;95416.97;;;11.17;49.46
47636;BME280;33364;50.766;15.338;2023-04-30T09:34:09;95415.91;;;10.77;50.12
47636;BME280;33364;50.766;15.338;2023-04-30T09:36:35;95418.13;;;11.09;50.07
47636;BME280;33364;50.766;15.338;2023-04-30T09:39:09;95415.50;;;11.38;49.91
47636;BME280;33364;50.766;15.338;2023-04-30T09:41:42;95416.03;;;11.11;47.72
47636;BME280;33364;50.766;15.338;2023-04-30T09:44:28;95422.38;;;10.81;49.19
47636;BME280;33364;50.766;15.338;2023-04-30T09:46:55;95415.75;;;10.96;49.32
47636;BME280;33364;50.766;15.338;2023-04-30T09:49:22;95413.47;;;11.16;48.42
47636;BME280;33364;50.766;15.338;2023-04-30T09:51:58;95409.34;;;11.49;46.70
47636;BME280;33364;50.766;15.338;2023-04-30T09:54:27;95403.19;;;11.49;47.19
47636;BME280;33364;50.766;15.338;2023-04-30T09:56:57;95407.16;;;11.92;48.25
47636;BME280;33364;50.766;15.338;2023-04-30T09:59:28;95404.06;;;12.51;46.75
47636;BME280;33364;50.766;15.338;2023-04-30T10:02:03;95410.56;;;12.21;46.11
47636;BME280;33364;50.766;15.338;2023-04-30T10:04:33;95414.13;;;11.64;47.62
47636;BME280;33364;50.766;15.338;2023-04-30T10:07:01;95415.28;;;10.99;48.09
47636;BME280;33364;50.766;15.338;2023-04-30T10:09:35;95407.16;;;11.46;49.00
47636;BME280;33364;50.766;15.338;2023-04-30T10:12:07;95403.47;;;11.81;45.20
47636;BME280;33364;50.766;15.338;2023-04-30T10:14:34;95404.19;;;11.76;47.71
47636;BME280;33364;50.766;15.338;2023-04-30T10:17:08;95400.78;;;11.18;48.02
47636;BME280;33364;50.766;15.338;2023-04-30T10:19:38;95403.78;;;10.70;47.70
47636;BME280;33364;50.766;15.338;2023-04-30T10:22:06;95404.78;;;10.92;45.03
47636;BME280;33364;50.766;15.338;2023-04-30T10:24:32;95395.88;;;11.27;44.55
47636;BME280;33364;50.766;15.338;2023-04-30T10:26:59;95404.09;;;12.00;46.04
47636;BME280;33364;50.766;15.338;2023-04-30T10:29:25;95388.34;;;12.33;47.77
47636;BME280;33364;50.766;15.338;2023-04-30T10:31:51;95385.34;;;12.29;44.18
47636;BME280;33364;50.766;15.338;2023-04-30T10:34:40;95385.59;;;12.44;44.62
47636;BME280;33364;50.766;15.338;2023-04-30T10:37:35;95372.06;;;12.90;42.01
47636;BME280;33364;50.766;15.338;2023-04-30T10:40:03;95365.28;;;12.60;41.91
47636;BME280;33364;50.766;15.338;2023-04-30T10:42:30;95362.88;;;12.81;43.84
47636;BME280;33364;50.766;15.338;2023-04-30T10:44:56;95370.41;;;12.45;44.80
47636;BME280;33364;50.766;15.338;2023-04-30T10:47:27;95369.78;;;12.60;44.45
47636;BME280;33364;50.766;15.338;2023-04-30T10:50:04;95362.63;;;12.43;42.86
47636;BME280;33364;50.766;15.338;2023-04-30T10:52:30;95360.56;;;12.90;43.95
47636;BME280;33364;50.766;15.338;2023-04-30T10:54:56;95357.75;;;13.46;41.41
47636;BME280;33364;50.766;15.338;2023-04-30T10:57:23;95358.78;;;13.72;38.95
47636;BME280;33364;50.766;15.338;2023-04-30T11:02:46;95353.69;;;13.16;42.99
47636;BME280;33364;50.766;15.338;2023-04-30T11:05:17;95353.28;;;13.29;41.54
47636;BME280;33364;50.766;15.338;2023-04-30T11:08:12;95361.69;;;13.16;34.87
47636;BME280;33364;50.766;15.338;2023-04-30T11:10:56;95356.13;;;13.45;35.12
47636;BME280;33364;50.766;15.338;2023-04-30T11:13:25;95347.88;;;13.46;38.64
47636;BME280;33364;50.766;15.338;2023-04-30T11:15:51;95352.66;;;13.44;37.07
47636;BME280;33364;50.766;15.338;2023-04-30T11:18:17;95349.75;;;13.46;37.74
47636;BME280;33364;50.766;15.338;2023-04-30T11:20:50;95348.34;;;13.70;37.46
47636;BME280;33364;50.766;15.338;2023-04-30T11:23:23;95346.91;;;13.90;38.97
47636;BME280;33364;50.766;15.338;2023-04-30T11:25:53;95354.00;;;13.74;34.52
47636;BME280;33364;50.766;15.338;2023-04-30T11:28:24;95347.78;;;13.14;36.61
47636;BME280;33364;50.766;15.338;2023-04-30T11:30:56;95352.41;;;13.46;37.32
47636;BME280;33364;50.766;15.338;2023-04-30T11:33:25;95347.06;;;14.10;36.68
47636;BME280;33364;50.766;15.338;2023-04-30T11:35:53;95348.22;;;14.25;34.30
47636;BME280;33364;50.766;15.338;2023-04-30T11:38:21;95360.72;;;14.52;36.55
47636;BME280;33364;50.766;15.338;2023-04-30T11:40:51;95358.84;;;14.57;34.00
47636;BME280;33364;50.766;15.338;2023-04-30T11:43:29;95358.41;;;14.28;36.88
47636;BME280;33364;50.766;15.338;2023-04-30T11:46:06;95356.38;;;14.45;36.33
47636;BME280;33364;50.766;15.338;2023-04-30T11:48:40;95353.84;;;14.28;32.94
47636;BME280;33364;50.766;15.338;2023-04-30T11:53:38;95355.22;;;14.31;33.07
47636;BME280;33364;50.766;15.338;2023-04-30T11:56:04;95348.25;;;14.30;32.12
47636;BME280;33364;50.766;15.338;2023-04-30T11:58:34;95359.31;;;14.44;34.12
47636;BME280;33364;50.766;15.338;2023-04-30T12:01:03;95347.78;;;14.38;33.56
47636;BME280;33364;50.766;15.338;2023-04-30T12:03:29;95347.44;;;14.67;34.80
47636;BME280;33364;50.766;15.338;2023-04-30T12:05:55;95353.38;;;13.99;30.56
47636;BME280;33364;50.766;15.338;2023-04-30T12:08:21;95355.66;;;13.53;32.36
47636;BME280;33364;50.766;15.338;2023-04-30T12:10:48;95359.78;;;13.66;31.23
47636;BME280;33364;50.766;15.338;2023-04-30T12:13:14;95359.88;;;14.08;32.12
47636;BME280;33364;50.766;15.338;2023-04-30T12:15:41;95358.34;;;14.18;30.81
47636;BME280;33364;50.766;15.338;2023-04-30T12:18:13;95361.50;;;14.52;30.84
47636;BME280;33364;50.766;15.338;2023-04-30T12:20:40;95367.34;;;14.92;31.00
47636;BME280;33364;50.766;15.338;2023-04-30T12:23:07;95372.16;;;14.90;31.13
47636;BME280;33364;50.766;15.338;2023-04-30T12:25:40;95354.19;;;14.85;31.67
47636;BME280;33364;50.766;15.338;2023-04-30T12:28:06;95362.00;;;14.97;32.79
47636;BME280;33364;50.766;15.338;2023-04-30T12:30:32;95349.75;;;15.11;32.74
47636;BME280;33364;50.766;15.338;2023-04-30T12:32:59;95352.19;;;15.18;28.71
47636;BME280;33364;50.766;15.338;2023-04-30T12:35:28;95361.50;;;15.05;28.57
47636;BME280;33364;50.766;15.338;2023-04-30T12:38:02;95352.97;;;14.55;26.22
47636;BME280;33364;50.766;15.338;2023-04-30T12:40:29;95346.06;;;14.22;28.13
47636;BME280;33364;50.766;15.338;2023-04-30T12:43:01;95346.78;;;14.07;31.08
47636;BME280;33364;50.766;15.338;2023-04-30T12:45:48;95348.94;;;13.77;32.69
47636;BME280;33364;50.766;15.338;2023-04-30T12:48:22;95343.53;;;14.00;35.78
47636;BME280;33364;50.766;15.338;2023-04-30T12:50:53;95340.91;;;14.10;32.63
47636;BME280;33364;50.766;15.338;2023-04-30T12:53:19;95337.06;;;14.33;34.78
47636;BME280;33364;50.766;15.338;2023-04-30T12:56:17;95339.72;;;14.33;31.47
47636;BME280;33364;50.766;15.338;2023-04-30T12:58:45;95335.97;;;14.29;30.39
47636;BME280;33364;50.766;15.338;2023-04-30T13:01:16;95337.09;;;14.01;32.70
47636;BME280;33364;50.766;15.338;2023-04-30T13:03:42;95324.06;;;14.04;32.55
47636;BME280;33364;50.766;15.338;2023-04-30T13:06:08;95317.34;;;14.49;33.95
47636;BME280;33364;50.766;15.338;2023-04-30T13:08:35;95334.03;;;14.62;32.01
47636;BME280;33364;50.766;15.338;2023-04-30T13:11:01;95328.31;;;14.48;31.63
47636;BME280;33364;50.766;15.338;2023-04-30T13:13:28;95329.00;;;14.28;32.94
47636;BME280;33364;50.766;15.338;2023-04-30T13:15:54;95324.00;;;13.99;32.18
47636;BME280;33364;50.766;15.338;2023-04-30T13:18:19;95322.63;;;14.34;33.33
47636;BME280;33364;50.766;15.338;2023-04-30T13:20:46;95323.81;;;14.54;33.75